Paducah, KY

12:20 PM CST on February 11, 2016 (GMT -0600)
Ricks Place Paducah, KY | | Change Station
CLOSE
Current Station
Personal Weather Station
Location: Paducah, KY
Elevation: 351 ft
Nearby Weather Stations
Active Advisory: Flood Warning

Elev 351 ft 37.07 °N, 88.62 °W | Updated 36 seconds ago

Partly Cloudy
Partly Cloudy
35.0 °F
Feels Like 30 °F
N
6.3
Wind Variable Wind from NE

Today
High -- | Low -- °F
--% Chance of Precip.
Yesterday
High -- | Low -- °F
Precip. -- in
Pressure 30.29 in
Visibility 10.0 miles
Clouds Few 2200 ft
Windchill 30 °F
Dew Point 21 °F
Humidity 56%
Rainfall 0.00 in
Snow Depth Not available.
6:48 AM 5:30 PM
Waxing Crescent, 13% visible
METAR KPAH 111753Z 05009KT 10SM FEW022 01/M04 A3028 RMK AO2 SLP257 T00111044 10017 21033 50003
Pressure 30.29 in
Visibility 10.0 miles
Clouds Few 2200 ft
Windchill 30 °F
Dew Point 21 °F
Humidity 56%
Rainfall 0.00 in
Snow Depth Not available.
6:48 AM 5:30 PM
Waxing Crescent, 13% visible
METAR KPAH 111753Z 05009KT 10SM FEW022 01/M04 A3028 RMK AO2 SLP257 T00111044 10017 21033 50003

10-Day Weather Forecast

Almanac

Astronomy

Feb. 11, 2016 Rise Set
Actual Time
Civil Twilight
Nautical Twilight
Astronomical Twilight
Moon
Length of Visible Light
Length of Day
Tomorrow will be .
, % of the Moon is Illuminated

Today's Extremes

State Highs State Lows

Community

WunderPhotos

Upload Photos

1,892,122 photos uploaded!

WunderBlog® & News

Nearby

Air Quality

  Air Quality AQ Index Pollutant
Not available.

Snow Depth

Station Depth Elevation

Earthquake Activity

City Distance Mag. Time & Date
Minimum magnitude displayed is 2.5.

Coastal Water Temperatures

Place Temperature

Stations

Nearby Weather Stations

Station Location Temp. Windchill Dew Point Humidity Wind Precip. Elev Updated Type
                   

Watches & Warnings

Flood Warning
Issued: 10:31 AM CST Feb. 11, 2016 – National Weather Service

The Flood Warning continues for
the Ohio River at Grand Chain dam
* until Saturday morning.
* At 8:00 am Thursday the stage was 42.5 feet.
* Flood stage is 42.0 feet.
* Minor flooding is occurring and minor flooding is forecast.
* Forecast... the river will continue to fall to below flood stage by
early Saturday morning.
* Impact... at 42.0 feet... this will cause minor flooding of mainly low
lying areas.


Lat... Lon 3727 8908 3717 8916 3709 8907 3714 8888
      3727 8884




910 PM CST Wed Feb 10 2016

The Flood Warning continues for
the Ohio River at Brookport dam
* until Saturday morning.
* At 7:00 PM Wednesday the stage was 37.2 feet.
* Flood stage is 37.0 feet.
* Minor flooding is occurring and minor flooding is forecast.
* Forecast... the river will continue to fall to below flood stage by
early Saturday morning.
* Impact... at 37.0 feet... minor flooding occurs affecting mainly
agricultural bottomland and low lying areas.


Lat... Lon 3727 8884 3714 8888 3709 8872 3715 8861